createdAt,value
2018-02-15T00:01:03.303Z,12.63
2018-02-15T00:03:38.638Z,14.45
2018-02-15T00:06:12.415Z,15.40
2018-02-15T00:08:46.193Z,13.75
2018-02-15T00:11:20.069Z,26.00
2018-02-15T00:13:55.557Z,19.17
2018-02-15T00:16:29.855Z,12.35
2018-02-15T00:19:03.616Z,12.73
2018-02-15T00:21:37.188Z,13.25
2018-02-15T00:24:10.979Z,13.88
2018-02-15T00:26:44.632Z,14.43
2018-02-15T00:29:18.177Z,12.75
2018-02-15T00:31:51.856Z,8.35
2018-02-15T00:34:25.690Z,12.75
2018-02-15T00:36:59.597Z,14.15
2018-02-15T00:39:33.419Z,17.58
2018-02-15T00:42:07.038Z,27.52
2018-02-15T00:44:41.624Z,15.23
2018-02-15T00:47:15.389Z,12.27
2018-02-15T00:49:49.162Z,9.13
2018-02-15T00:52:23.877Z,10.52
2018-02-15T00:54:58.884Z,12.27
2018-02-15T00:57:33.954Z,13.27
2018-02-15T01:00:07.752Z,8.70
2018-02-15T01:02:42.728Z,11.27
2018-02-15T01:05:17.180Z,8.25
2018-02-15T01:07:50.932Z,9.70
2018-02-15T01:10:24.818Z,9.13
2018-02-15T01:13:01.386Z,7.82
2018-02-15T01:15:35.004Z,11.88
2018-02-15T01:18:08.878Z,6.87
2018-02-15T01:20:43.405Z,17.77
2018-02-15T01:23:18.584Z,26.15
2018-02-15T01:25:53.419Z,20.17
2018-02-15T01:28:27.225Z,15.63
2018-02-15T01:31:02.149Z,10.13
2018-02-15T01:33:36.030Z,9.77
2018-02-15T01:36:09.774Z,9.27
2018-02-15T01:38:44.443Z,14.45
2018-02-15T01:41:18.998Z,17.75
2018-02-15T01:43:52.656Z,16.90
2018-02-15T01:46:26.500Z,24.00
2018-02-15T01:49:01.185Z,38.67
2018-02-15T01:51:35.044Z,17.60
2018-02-15T01:54:09.528Z,12.25
2018-02-15T01:56:44.054Z,11.38
2018-02-15T01:59:17.928Z,8.15
2018-02-15T02:01:52.374Z,17.45
2018-02-15T02:04:26.036Z,29.92
2018-02-15T02:07:00.606Z,10.02
2018-02-15T02:09:34.355Z,8.40
2018-02-15T02:12:09.934Z,8.07
2018-02-15T02:14:44.244Z,8.40
2018-02-15T02:17:21.928Z,9.02
2018-02-15T02:19:55.756Z,10.07
2018-02-15T02:22:29.656Z,10.23
2018-02-15T02:25:04.018Z,8.30
2018-02-15T02:27:39.237Z,8.57
2018-02-15T02:30:13.053Z,9.18
2018-02-15T02:32:46.901Z,10.07
2018-02-15T02:35:21.391Z,9.82
2018-02-15T02:37:55.483Z,11.68
2018-02-15T02:40:29.279Z,9.43
2018-02-15T02:43:02.980Z,7.85
2018-02-15T02:45:36.801Z,8.50
2018-02-15T02:48:10.627Z,8.40
2018-02-15T02:50:45.679Z,9.15
2018-02-15T02:53:20.180Z,8.02
2018-02-15T02:55:54.009Z,45.97
2018-02-15T02:58:27.753Z,24.30
2018-02-15T03:01:04.927Z,9.13
2018-02-15T03:03:38.695Z,8.13
2018-02-15T03:06:13.092Z,8.70
2018-02-15T03:08:46.854Z,11.12
2018-02-15T03:11:21.378Z,10.65
2018-02-15T03:13:55.110Z,10.25
2018-02-15T03:16:29.824Z,8.13
2018-02-15T03:19:03.615Z,9.30
2018-02-15T03:21:37.250Z,6.70
2018-02-15T03:24:11.066Z,11.27
2018-02-15T03:26:44.800Z,6.85
2018-02-15T03:29:18.417Z,7.57
2018-02-15T03:31:52.131Z,7.90
2018-02-15T03:34:25.804Z,9.38
2018-02-15T03:36:59.590Z,6.37
2018-02-15T03:39:34.817Z,7.40
2018-02-15T03:42:08.670Z,7.87
2018-02-15T03:44:43.340Z,7.03
2018-02-15T03:47:17.158Z,5.28
2018-02-15T03:49:50.815Z,5.90
2018-02-15T03:52:24.417Z,5.35
2018-02-15T03:54:58.166Z,6.47
2018-02-15T03:57:31.975Z,7.53
2018-02-15T04:00:05.777Z,6.78
2018-02-15T04:02:39.616Z,9.25
2018-02-15T04:05:13.361Z,11.65
2018-02-15T04:07:47.014Z,7.18
2018-02-15T04:10:23.184Z,6.53
2018-02-15T04:12:56.934Z,6.12
2018-02-15T04:15:30.814Z,16.12
2018-02-15T04:18:04.537Z,11.93
2018-02-15T04:20:38.412Z,10.55
2018-02-15T04:23:11.966Z,8.18
2018-02-15T04:25:47.159Z,18.85
2018-02-15T04:28:20.870Z,13.07
2018-02-15T04:30:55.110Z,10.55
2018-02-15T04:33:29.490Z,11.23
2018-02-15T04:36:03.191Z,10.48
2018-02-15T04:38:37.751Z,6.57
2018-02-15T04:41:11.541Z,12.70
2018-02-15T04:43:46.330Z,16.08
2018-02-15T04:46:20.113Z,14.45
2018-02-15T04:48:53.841Z,18.02
2018-02-15T04:51:27.901Z,23.50
2018-02-15T04:54:01.767Z,26.45
2018-02-15T04:56:35.488Z,20.27
2018-02-15T04:59:09.295Z,17.15
2018-02-15T05:01:43.050Z,26.23
2018-02-15T05:04:16.894Z,14.38
2018-02-15T05:06:50.807Z,11.38
2018-02-15T05:09:24.436Z,9.50
2018-02-15T05:11:58.083Z,10.43
2018-02-15T05:14:33.594Z,9.23
2018-02-15T05:17:09.802Z,16.33
2018-02-15T05:19:45.065Z,9.85
2018-02-15T05:22:19.513Z,16.77
2018-02-15T05:24:53.316Z,12.75
2018-02-15T05:27:27.880Z,8.73
2018-02-15T05:30:01.700Z,5.85
2018-02-15T05:32:36.483Z,6.22
2018-02-15T05:35:10.189Z,4.72
2018-02-15T05:37:43.927Z,5.12
2018-02-15T05:40:18.822Z,21.20
2018-02-15T05:42:54.068Z,11.10
2018-02-15T05:45:27.717Z,9.13
2018-02-15T05:48:02.242Z,8.18
2018-02-15T05:50:35.839Z,9.85
2018-02-15T05:53:09.786Z,8.68
2018-02-15T05:55:43.375Z,8.07
2018-02-15T05:58:18.748Z,7.20
2018-02-15T06:00:52.414Z,7.45
2018-02-15T06:03:26.964Z,5.65
2018-02-15T06:06:00.726Z,6.70
2018-02-15T06:08:34.438Z,6.93
2018-02-15T06:11:08.213Z,11.63
2018-02-15T06:13:41.977Z,9.55
2018-02-15T06:16:15.498Z,12.77
2018-02-15T06:18:49.091Z,14.38
2018-02-15T06:21:23.789Z,15.50
2018-02-15T06:23:57.396Z,6.55
2018-02-15T06:26:31.211Z,7.20
2018-02-15T06:29:05.225Z,7.47
2018-02-15T06:31:38.917Z,9.00
2018-02-15T06:34:12.552Z,8.90
2018-02-15T06:36:48.076Z,8.48
2018-02-15T06:39:22.104Z,10.07
2018-02-15T06:41:56.573Z,8.10
2018-02-15T06:44:31.107Z,8.43
2018-02-15T06:47:04.726Z,5.07
2018-02-15T06:49:39.203Z,4.60
2018-02-15T06:52:13.086Z,7.82
2018-02-15T06:54:47.987Z,4.43
2018-02-15T06:57:21.800Z,3.05
2018-02-15T06:59:56.222Z,5.97
2018-02-15T07:02:30.776Z,5.82
2018-02-15T07:05:05.285Z,4.50
2018-02-15T07:07:39.118Z,6.57
2018-02-15T07:10:13.691Z,5.20
2018-02-15T07:12:47.470Z,6.75
2018-02-15T07:15:21.275Z,32.22
2018-02-15T07:17:55.681Z,27.45
2018-02-15T07:20:29.390Z,8.40
2018-02-15T07:23:03.022Z,8.57
2018-02-15T07:25:37.595Z,4.40
2018-02-15T07:28:11.264Z,6.55
2018-02-15T07:30:46.066Z,8.05
2018-02-15T07:33:19.925Z,9.75
2018-02-15T07:35:53.594Z,5.53
2018-02-15T07:38:27.471Z,7.32
2018-02-15T07:41:01.903Z,9.48
2018-02-15T07:43:35.522Z,8.15
2018-02-15T07:46:09.310Z,9.25
2018-02-15T07:48:45.596Z,13.35
2018-02-15T07:51:19.427Z,11.90
2018-02-15T07:53:53.206Z,15.57
2018-02-15T07:56:26.933Z,12.35
2018-02-15T07:59:01.276Z,13.93
2018-02-15T08:01:35.756Z,12.85
2018-02-15T08:04:09.593Z,7.90
2018-02-15T08:06:43.363Z,6.97
2018-02-15T08:09:17.165Z,7.15
2018-02-15T08:11:51.908Z,7.57
2018-02-15T08:14:25.706Z,8.07
2018-02-15T08:16:59.584Z,5.80
2018-02-15T08:19:33.299Z,7.03
2018-02-15T08:22:08.075Z,3.97
2018-02-15T08:24:41.728Z,8.25
2018-02-15T08:27:15.357Z,5.12
2018-02-15T08:29:49.032Z,5.12
2018-02-15T08:32:23.488Z,5.00
2018-02-15T08:34:57.209Z,4.57
2018-02-15T08:37:30.970Z,3.85
2018-02-15T08:40:04.735Z,6.20
2018-02-15T08:42:38.528Z,4.85
2018-02-15T08:45:12.225Z,4.97
2018-02-15T08:47:46.652Z,5.45
2018-02-15T08:50:20.523Z,4.60
2018-02-15T08:52:54.886Z,5.12
2018-02-15T08:55:28.743Z,4.72
2018-02-15T08:58:02.542Z,5.57
2018-02-15T09:00:36.227Z,4.62
2018-02-15T09:03:09.940Z,3.72
2018-02-15T09:05:44.345Z,3.58
2018-02-15T09:08:18.046Z,5.40
2018-02-15T09:10:52.578Z,4.18
2018-02-15T09:13:26.426Z,3.70
2018-02-15T09:16:00.366Z,3.58
2018-02-15T09:18:34.070Z,4.07
2018-02-15T09:21:08.581Z,5.40
2018-02-15T09:23:42.206Z,5.37
2018-02-15T09:26:15.710Z,3.72
2018-02-15T09:28:49.344Z,3.97
2018-02-15T09:31:23.397Z,4.55
2018-02-15T09:33:57.217Z,5.12
2018-02-15T09:36:31.751Z,2.92
2018-02-15T09:39:07.214Z,5.45
2018-02-15T09:41:40.995Z,3.05
2018-02-15T09:44:14.657Z,4.00
2018-02-15T09:46:49.277Z,3.10
2018-02-15T09:49:23.764Z,4.12
2018-02-15T09:51:57.765Z,4.00
2018-02-15T09:54:31.486Z,3.40
2018-02-15T09:57:06.116Z,6.12
2018-02-15T09:59:40.771Z,3.37
2018-02-15T10:02:14.368Z,4.07
2018-02-15T10:04:47.973Z,9.35
2018-02-15T10:07:21.671Z,6.47
2018-02-15T10:09:55.495Z,7.80
2018-02-15T10:12:29.848Z,6.75
2018-02-15T10:15:03.915Z,6.60
2018-02-15T10:17:37.738Z,8.07
2018-02-15T10:20:11.484Z,5.18
2018-02-15T10:22:45.201Z,7.35
2018-02-15T10:25:19.784Z,3.65
2018-02-15T10:27:53.507Z,4.50
2018-02-15T10:30:27.951Z,4.85
2018-02-15T10:33:01.675Z,5.53
2018-02-15T10:35:36.053Z,4.05
2018-02-15T10:38:09.880Z,4.53
2018-02-15T10:40:43.601Z,4.20
2018-02-15T10:43:17.351Z,3.78
2018-02-15T10:45:51.190Z,5.37
2018-02-15T10:48:25.031Z,6.22
2018-02-15T10:50:58.668Z,2.62
2018-02-15T10:53:32.556Z,5.25
2018-02-15T10:56:06.282Z,3.55
2018-02-15T10:58:40.127Z,2.80
2018-02-15T11:01:19.690Z,7.35
2018-02-15T11:03:59.311Z,6.85
2018-02-15T11:06:32.960Z,6.50
2018-02-15T11:09:06.565Z,3.30
2018-02-15T11:11:40.334Z,5.12
2018-02-15T11:14:14.188Z,3.58
2018-02-15T11:16:49.342Z,4.90
2018-02-15T11:19:23.117Z,3.87
2018-02-15T11:21:56.665Z,4.55
2018-02-15T11:24:30.560Z,4.87
2018-02-15T11:27:04.228Z,4.93
2018-02-15T11:29:38.103Z,5.75
2018-02-15T11:32:12.476Z,4.22
2018-02-15T11:34:47.437Z,3.67
2018-02-15T11:37:22.075Z,5.03
2018-02-15T11:39:56.494Z,4.85
2018-02-15T11:42:30.212Z,8.40
2018-02-15T11:45:03.827Z,4.70
2018-02-15T11:47:37.890Z,4.03
2018-02-15T11:50:11.475Z,3.70
2018-02-15T11:52:46.057Z,4.70
2018-02-15T11:55:20.681Z,8.15
2018-02-15T11:57:55.157Z,5.15
2018-02-15T12:00:28.829Z,4.97
2018-02-15T12:03:02.499Z,8.68
2018-02-15T12:05:36.271Z,5.03
2018-02-15T12:08:10.183Z,4.05
2018-02-15T12:10:43.921Z,9.15
2018-02-15T12:13:17.774Z,7.93
2018-02-15T12:15:52.253Z,4.85
2018-02-15T12:18:25.924Z,5.37
2018-02-15T12:20:59.571Z,5.10
2018-02-15T12:23:34.229Z,5.65
2018-02-15T12:26:08.040Z,5.82
2018-02-15T12:28:41.874Z,3.78
2018-02-15T12:31:15.610Z,3.80
2018-02-15T12:33:49.366Z,4.03
2018-02-15T12:36:23.819Z,4.57
2018-02-15T12:38:57.580Z,7.37
2018-02-15T12:41:33.328Z,4.82
2018-02-15T12:44:07.404Z,6.65
2018-02-15T12:46:41.540Z,6.10
2018-02-15T12:49:15.129Z,4.12
2018-02-15T12:51:49.843Z,6.68
2018-02-15T12:54:23.622Z,5.10
2018-02-15T12:56:58.091Z,3.85
2018-02-15T12:59:31.909Z,7.05
2018-02-15T13:02:05.692Z,4.15
2018-02-15T13:04:39.507Z,5.80
2018-02-15T13:07:13.114Z,2.90
2018-02-15T13:09:46.846Z,9.15
2018-02-15T13:12:32.480Z,3.42
2018-02-15T13:18:08.360Z,2.90
2018-02-15T13:20:43.046Z,4.62
2018-02-15T13:23:16.730Z,4.68
2018-02-15T13:25:51.255Z,13.60
2018-02-15T13:28:37.914Z,11.45
2018-02-15T13:31:11.499Z,5.60
2018-02-15T13:33:45.142Z,11.07
2018-02-15T13:36:18.898Z,4.45
2018-02-15T13:38:52.632Z,4.75
2018-02-15T13:41:26.441Z,12.45
2018-02-15T13:44:00.200Z,8.00
2018-02-15T13:46:33.865Z,4.90
2018-02-15T13:49:07.685Z,4.60
2018-02-15T13:51:42.165Z,5.57
2018-02-15T13:54:17.825Z,5.35
2018-02-15T13:56:51.623Z,4.70
2018-02-15T13:59:26.367Z,6.43
2018-02-15T14:02:01.727Z,4.07
2018-02-15T14:04:35.341Z,19.33
2018-02-15T14:07:09.160Z,10.10
2018-02-15T14:09:42.870Z,4.55
2018-02-15T14:12:16.639Z,4.95
2018-02-15T14:14:50.991Z,4.62
2018-02-15T14:17:26.816Z,7.22
2018-02-15T14:20:01.240Z,4.10
2018-02-15T14:22:34.862Z,11.55
2018-02-15T14:25:08.651Z,4.05
2018-02-15T14:27:43.260Z,5.60
2018-02-15T14:30:17.062Z,4.65
2018-02-15T14:32:51.539Z,6.90
2018-02-15T14:35:25.288Z,5.72
2018-02-15T14:37:58.978Z,6.47
2018-02-15T14:40:32.819Z,7.10
2018-02-15T14:43:06.610Z,3.97
2018-02-15T14:45:40.292Z,5.32
2018-02-15T14:48:13.932Z,5.70
2018-02-15T14:50:47.729Z,4.15
2018-02-15T14:53:22.179Z,6.35
2018-02-15T14:55:56.031Z,4.25
2018-02-15T14:58:29.773Z,3.90
2018-02-15T15:01:03.506Z,4.30
2018-02-15T15:03:37.312Z,6.12
2018-02-15T15:06:12.796Z,11.00
2018-02-15T15:08:47.641Z,5.72
2018-02-15T15:11:21.431Z,8.73
2018-02-15T15:13:55.267Z,12.77
2018-02-15T15:16:29.051Z,15.15
2018-02-15T15:19:02.791Z,10.95
2018-02-15T15:21:37.354Z,8.88
2018-02-15T15:24:11.930Z,7.90
2018-02-15T15:26:46.553Z,7.28
2018-02-15T15:29:20.303Z,7.65
2018-02-15T15:31:54.086Z,5.35
2018-02-15T15:34:27.655Z,3.97
2018-02-15T15:37:02.360Z,5.57
2018-02-15T15:39:36.180Z,6.95
2018-02-15T15:42:10.622Z,6.80
2018-02-15T15:44:44.443Z,6.40
2018-02-15T15:47:19.824Z,11.80
2018-02-15T15:49:53.466Z,8.23
2018-02-15T15:52:27.098Z,9.75
2018-02-15T15:55:00.901Z,10.70
2018-02-15T15:57:35.478Z,12.37
2018-02-15T16:00:10.634Z,11.02
2018-02-15T16:02:44.494Z,13.70
2018-02-15T16:05:18.295Z,13.40
2018-02-15T16:07:52.087Z,11.00
2018-02-15T16:10:26.639Z,12.60
2018-02-15T16:13:01.315Z,10.15
2018-02-15T16:15:35.023Z,13.20
2018-02-15T16:18:08.637Z,11.10
2018-02-15T16:20:42.455Z,11.12
2018-02-15T16:23:16.895Z,11.75
2018-02-15T16:25:51.320Z,10.52
2018-02-15T16:28:25.113Z,8.68
2018-02-15T16:30:59.639Z,11.68
2018-02-15T16:33:33.371Z,10.07
2018-02-15T16:36:07.043Z,10.45
2018-02-15T16:38:40.860Z,9.88
2018-02-15T16:41:14.704Z,10.40
2018-02-15T16:43:48.792Z,9.15
2018-02-15T16:46:23.351Z,10.40
2018-02-15T16:48:57.078Z,9.23
2018-02-15T16:51:30.741Z,8.48
2018-02-15T16:54:04.382Z,11.35
2018-02-15T16:56:38.168Z,18.20
2018-02-15T16:59:13.102Z,12.88
2018-02-15T17:01:46.916Z,12.48
2018-02-15T17:04:20.743Z,11.73
2018-02-15T17:06:54.563Z,11.20
2018-02-15T17:09:28.212Z,12.30
2018-02-15T17:12:01.898Z,12.52
2018-02-15T17:14:35.684Z,15.20
2018-02-15T17:17:10.269Z,11.80
2018-02-15T17:19:45.015Z,13.15
2018-02-15T17:22:20.176Z,15.73
2018-02-15T17:24:54.760Z,16.52
2018-02-15T17:27:28.454Z,17.02
2018-02-15T17:30:02.057Z,13.80
2018-02-15T17:32:36.634Z,16.65
2018-02-15T17:35:10.428Z,18.10
2018-02-15T17:37:44.105Z,16.33
2018-02-15T17:40:17.712Z,13.43
2018-02-15T17:42:51.523Z,14.07
2018-02-15T17:45:25.249Z,16.08
2018-02-15T17:47:58.988Z,21.65
2018-02-15T17:50:33.322Z,19.10
2018-02-15T17:53:07.059Z,19.25
2018-02-15T17:55:41.932Z,21.05
2018-02-15T17:58:15.592Z,25.15
2018-02-15T18:00:50.143Z,26.45
2018-02-15T18:03:23.939Z,23.98
2018-02-15T18:05:57.633Z,19.37
2018-02-15T18:08:31.430Z,22.33
2018-02-15T18:11:05.225Z,19.10
2018-02-15T18:13:39.855Z,18.27
2018-02-15T18:16:14.462Z,18.52
2018-02-15T18:18:48.968Z,14.63
2018-02-15T18:21:22.587Z,15.45
2018-02-15T18:23:56.366Z,14.82
2018-02-15T18:26:30.228Z,18.98
2018-02-15T18:29:05.690Z,18.05
2018-02-15T18:31:39.646Z,19.02
2018-02-15T18:34:13.563Z,17.25
2018-02-15T18:36:47.440Z,20.83
2018-02-15T18:39:21.233Z,21.80
2018-02-15T18:41:57.184Z,16.17
2018-02-15T18:44:31.012Z,18.20
2018-02-15T18:47:04.760Z,13.68
2018-02-15T18:49:39.259Z,15.73
2018-02-15T18:52:12.991Z,17.00
2018-02-15T18:54:47.571Z,18.50
2018-02-15T18:57:21.602Z,17.20
2018-02-15T18:59:56.112Z,16.17
2018-02-15T19:02:29.916Z,18.33
2018-02-15T19:05:04.485Z,16.40
2018-02-15T19:07:40.053Z,13.52
2018-02-15T19:10:13.714Z,12.75
2018-02-15T19:12:47.459Z,21.65
2018-02-15T19:15:21.135Z,21.92
2018-02-15T19:17:54.863Z,12.57
2018-02-15T19:20:28.709Z,14.13
2018-02-15T19:23:03.266Z,11.55
2018-02-15T19:25:37.007Z,14.60
2018-02-15T19:28:10.928Z,16.98
2018-02-15T19:30:44.658Z,17.27
2018-02-15T19:33:18.218Z,14.25
2018-02-15T19:35:51.865Z,13.85
2018-02-15T19:38:25.636Z,13.40
2018-02-15T19:40:59.424Z,12.65
2018-02-15T19:43:33.121Z,12.43
2018-02-15T19:46:06.925Z,19.60
2018-02-15T19:48:40.696Z,21.52
2018-02-15T19:51:14.327Z,20.77
2018-02-15T19:53:48.193Z,19.23
2018-02-15T19:56:21.980Z,18.10
2018-02-15T19:58:55.534Z,19.33
2018-02-15T20:01:29.116Z,20.40
2018-02-15T20:04:02.822Z,17.15
2018-02-15T20:06:36.548Z,14.82
2018-02-15T20:09:10.198Z,17.83
2018-02-15T20:11:43.958Z,17.77
2018-02-15T20:14:18.689Z,15.32
2018-02-15T20:16:52.502Z,16.60
2018-02-15T20:19:27.179Z,16.85
2018-02-15T20:22:00.930Z,19.25
2018-02-15T20:24:34.696Z,17.33
2018-02-15T20:40:42.835Z,17.05
2018-02-15T20:43:16.503Z,16.95
2018-02-15T20:45:51.051Z,15.20
2018-02-15T20:48:24.848Z,22.95
2018-02-15T20:51:04.425Z,22.45
2018-02-15T20:53:43.965Z,20.40
2018-02-15T20:56:18.621Z,21.00
2018-02-15T20:58:52.478Z,19.42
2018-02-15T21:01:26.230Z,19.08
2018-02-15T21:04:00.700Z,20.62
2018-02-15T21:06:34.413Z,19.73
2018-02-15T21:09:09.635Z,20.20
2018-02-15T21:11:43.621Z,17.83
2018-02-15T21:14:17.988Z,18.67
2018-02-15T21:16:51.748Z,18.40
2018-02-15T21:19:25.482Z,24.67
2018-02-15T21:21:59.224Z,18.40
2018-02-15T21:24:33.051Z,15.45
2018-02-15T21:27:06.882Z,21.33
2018-02-15T21:29:40.816Z,17.40
2018-02-15T21:32:14.461Z,17.17
2018-02-15T21:34:48.282Z,18.60
2018-02-15T21:37:21.896Z,16.85
2018-02-15T21:39:55.749Z,19.40
2018-02-15T21:42:29.753Z,20.50
2018-02-15T21:45:03.543Z,21.85
2018-02-15T21:47:39.835Z,18.42
2018-02-15T21:50:14.219Z,20.33
2018-02-15T21:52:48.038Z,26.60
2018-02-15T21:55:21.766Z,21.50
2018-02-15T21:57:56.382Z,21.83
2018-02-15T22:00:30.146Z,28.75
2018-02-15T22:03:05.158Z,25.55
2018-02-15T22:05:39.059Z,33.65
2018-02-15T22:08:14.521Z,28.42
2018-02-15T22:10:48.414Z,27.92
2018-02-15T22:13:22.899Z,26.87
2018-02-15T22:15:56.703Z,22.85
2018-02-15T22:18:30.445Z,22.50
2018-02-15T22:21:04.154Z,18.65
2018-02-15T22:23:38.645Z,22.48
2018-02-15T22:26:12.458Z,23.58
2018-02-15T22:28:47.011Z,26.58
2018-02-15T22:31:20.800Z,27.52
2018-02-15T22:33:55.403Z,21.62
2018-02-15T22:36:30.626Z,21.50
2018-02-15T22:39:04.387Z,25.42
2018-02-15T22:41:38.157Z,24.02
2018-02-15T22:44:12.737Z,29.33
2018-02-15T22:46:46.629Z,26.58
2018-02-15T22:49:20.420Z,26.73
2018-02-15T22:51:54.285Z,30.45
2018-02-15T22:54:28.125Z,27.13
2018-02-15T22:57:01.926Z,27.92
2018-02-15T22:59:35.813Z,23.55
2018-02-15T23:02:09.579Z,21.85
2018-02-15T23:04:43.389Z,21.90
2018-02-15T23:07:17.235Z,24.80
2018-02-15T23:09:51.049Z,22.15
2018-02-15T23:12:25.611Z,25.85
2018-02-15T23:15:00.115Z,24.70
2018-02-15T23:17:33.861Z,24.23
2018-02-15T23:20:07.734Z,24.40
2018-02-15T23:22:42.306Z,23.52
2018-02-15T23:25:16.740Z,19.87
2018-02-15T23:27:50.623Z,24.00
2018-02-15T23:30:24.367Z,22.23
2018-02-15T23:32:58.930Z,22.55
2018-02-15T23:35:32.756Z,23.70
2018-02-15T23:38:06.442Z,22.25
2018-02-15T23:40:40.260Z,20.23
2018-02-15T23:43:15.043Z,21.80
2018-02-15T23:45:48.713Z,21.12
2018-02-15T23:48:23.301Z,18.65
2018-02-15T23:50:56.923Z,21.02
2018-02-15T23:53:31.673Z,25.40
2018-02-15T23:56:05.405Z,21.05
2018-02-15T23:58:39.086Z,20.45
